Time;durP1;ratioP1;P1;durP2;ratioP2;P2;SDS_P1;SDS_P2;PMS_P1;PMS_P2;Temp;Humidity;BMP_temperature;BMP_pressure;BME280_temperature;BME280_humidity;BME280_pressure;Samples;Min_cycle;Max_cycle;Signal;HPM_P1;HPM_P2
2022/11/24 00:00:23;;;;;;;13.10;2.15;;;9.90;99.90;;;9.12;100.00;100499.72;4219252;28;20040;-74
2022/11/24 00:02:23;;;;;;;15.27;3.13;;;9.90;99.90;;;9.17;100.00;100489.59;4219002;28;20095;-74
2022/11/24 00:04:24;;;;;;;11.15;2.90;;;10.00;99.90;;;9.15;100.00;100497.63;4219332;28;20028;-74
2022/11/24 00:06:27;;;;;;;20.80;3.28;;;10.00;99.90;;;9.16;100.00;100488.75;4219199;28;20475;-73
2022/11/24 00:08:27;;;;;;;17.45;3.63;;;10.00;99.90;;;9.16;100.00;100495.81;4218950;28;20060;-74
2022/11/24 00:10:28;;;;;;;16.70;3.22;;;10.00;99.90;;;9.19;100.00;100491.09;4217966;28;20032;-73
2022/11/24 00:12:29;;;;;;;18.30;3.60;;;10.10;99.90;;;9.25;100.00;100500.16;4251668;27;20080;-74
2022/11/24 00:14:30;;;;;;;17.75;4.35;;;10.10;99.90;;;9.30;100.00;100500.53;4219022;28;20054;-74
2022/11/24 00:16:35;;;;;;;19.80;3.10;;;10.10;99.90;;;9.33;100.00;100503.69;4219319;28;20020;-73
2022/11/24 00:18:36;;;;;;;21.27;3.00;;;10.20;99.90;;;9.35;100.00;100493.81;4217791;28;20039;-74
2022/11/24 00:20:37;;;;;;;18.58;3.63;;;10.20;99.90;;;9.38;100.00;100495.31;4234322;28;20020;-74
2022/11/24 00:22:38;;;;;;;13.43;2.67;;;10.20;99.90;;;9.39;100.00;100482.00;4218112;28;20074;-73
2022/11/24 00:24:39;;;;;;;15.48;2.50;;;10.20;99.90;;;9.46;100.00;100492.75;4218775;28;20066;-74
2022/11/24 00:26:40;;;;;;;14.52;2.60;;;10.30;99.90;;;9.48;100.00;100495.22;4218791;28;20028;-74
2022/11/24 00:28:42;;;;;;;18.85;3.00;;;10.30;99.90;;;9.45;100.00;100484.03;4251640;27;20413;-73
2022/11/24 00:30:43;;;;;;;13.93;3.28;;;10.30;99.90;;;9.43;100.00;100488.63;4217801;28;20058;-74
2022/11/24 00:32:44;;;;;;;15.35;2.70;;;10.30;99.90;;;9.38;100.00;100487.41;4251340;27;20015;-73
2022/11/24 00:34:46;;;;;;;14.30;2.60;;;10.30;99.90;;;9.32;100.00;100494.13;4218799;28;20518;-74
2022/11/24 00:36:47;;;;;;;18.48;3.50;;;10.20;99.90;;;9.35;100.00;100498.25;4251370;27;20054;-74
2022/11/24 00:39:00;;;;;;;20.63;3.30;;;10.20;99.90;;;9.31;100.00;100504.81;4218872;28;20024;-73
2022/11/24 00:41:00;;;;;;;20.05;3.00;;;10.20;99.90;;;9.24;100.00;100503.78;4250916;27;20019;-74
2022/11/24 00:43:02;;;;;;;19.73;3.75;;;10.10;99.90;;;9.15;100.00;100513.41;4251412;27;20027;-74
2022/11/24 00:45:04;;;;;;;22.73;4.07;;;10.00;99.90;;;9.10;100.00;100520.13;4218764;28;20020;-73
2022/11/24 00:47:05;;;;;;;22.27;3.63;;;9.90;99.90;;;8.97;100.00;100525.75;4217295;28;20028;-74
2022/11/24 00:49:06;;;;;;;22.15;3.53;;;9.90;99.90;;;8.88;100.00;100527.50;4251138;27;20099;-73
2022/11/24 00:51:10;;;;;;;18.25;3.78;;;9.70;99.90;;;8.83;100.00;100542.91;4217650;28;20024;-73
2022/11/24 00:53:11;;;;;;;20.55;3.55;;;9.70;99.90;;;8.74;100.00;100548.22;4251332;27;20023;-74
2022/11/24 00:55:11;;;;;;;13.23;2.67;;;9.60;99.90;;;8.68;100.00;100552.28;4218540;28;20032;-74
2022/11/24 00:57:12;;;;;;;22.05;3.80;;;9.60;99.90;;;8.61;100.00;100561.72;4217883;28;20392;-73
2022/11/24 00:59:13;;;;;;;22.95;3.10;;;9.50;99.90;;;8.64;100.00;100557.97;4217183;28;20059;-74
2022/11/24 01:01:21;;;;;;;17.10;3.70;;;9.50;99.90;;;8.60;100.00;100572.41;4218711;28;20032;-73
2022/11/24 01:03:22;;;;;;;22.30;3.78;;;9.40;99.90;;;8.61;100.00;100566.97;4250293;28;20522;-74
2022/11/24 01:05:22;;;;;;;17.38;2.88;;;9.40;99.90;;;8.50;100.00;100575.06;4218491;28;20024;-74
2022/11/24 01:07:23;;;;;;;25.98;4.10;;;9.40;99.90;;;8.44;100.00;100578.28;4218482;28;20556;-73
2022/11/24 01:09:25;;;;;;;19.20;3.25;;;9.30;99.90;;;8.45;100.00;100590.47;4218394;28;20028;-73
2022/11/24 01:12:00;;;;;;;25.80;4.38;;;9.20;99.90;;;8.48;100.00;100582.28;4216989;28;20040;-74
2022/11/24 01:13:58;;;;;;;18.20;2.90;;;9.30;99.90;;;8.39;100.00;100592.84;4246587;27;20064;-73
2022/11/24 01:15:58;;;;;;;20.88;3.60;;;9.30;99.90;;;8.36;100.00;100590.50;4254410;27;20072;-73
2022/11/24 01:17:59;;;;;;;11.52;2.80;;;9.20;99.90;;;8.38;100.00;100605.16;4219404;28;20495;-73
2022/11/24 01:20:00;;;;;;;27.25;3.67;;;9.20;99.90;;;8.35;100.00;100608.06;4221602;28;20093;-74
2022/11/24 01:22:01;;;;;;;20.15;4.13;;;9.20;99.90;;;8.40;100.00;100615.50;4221564;28;20040;-74
2022/11/24 01:24:02;;;;;;;19.98;3.83;;;9.20;99.90;;;8.38;100.00;100620.94;4221844;28;20024;-73
2022/11/24 01:26:06;;;;;;;18.80;2.72;;;9.20;99.90;;;8.32;100.00;100616.25;4221467;28;20526;-73
2022/11/24 01:28:06;;;;;;;14.10;3.40;;;9.20;99.90;;;8.25;100.00;100620.38;4254114;27;20034;-73
2022/11/24 01:30:08;;;;;;;27.05;4.20;;;9.10;99.90;;;8.18;100.00;100624.56;4254198;27;20031;-74
2022/11/24 01:32:09;;;;;;;20.10;4.18;;;9.10;99.90;;;8.14;100.00;100626.66;4254722;27;20109;-73
2022/11/24 01:34:11;;;;;;;23.60;3.53;;;9.00;99.90;;;8.12;100.00;100633.03;4254326;27;20023;-74
2022/11/24 01:36:12;;;;;;;22.98;3.70;;;9.00;99.90;;;8.11;100.00;100640.06;4221526;28;20024;-74
2022/11/24 01:38:13;;;;;;;23.35;3.63;;;9.00;99.90;;;8.10;100.00;100642.81;4220107;28;20030;-73
2022/11/24 01:40:14;;;;;;;22.15;3.60;;;8.90;99.90;;;8.11;100.00;100644.50;4221667;28;20020;-73
2022/11/24 01:42:16;;;;;;;20.60;3.90;;;9.00;99.90;;;8.05;100.00;100647.69;4221313;28;20095;-74
2022/11/24 01:44:29;;;;;;;21.15;4.65;;;8.90;99.90;;;8.02;100.00;100654.06;4253961;27;20023;-73
2022/11/24 01:46:35;;;;;;;29.95;4.57;;;8.90;99.90;;;7.95;100.00;100652.97;4254108;27;20026;-73
2022/11/24 01:48:43;;;;;;;25.08;4.72;;;8.80;99.90;;;7.98;100.00;100667.59;4254190;27;20031;-74
2022/11/24 01:50:47;;;;;;;19.13;3.08;;;8.80;99.90;;;7.92;100.00;100662.91;4221368;28;20555;-73
2022/11/24 01:52:54;;;;;;;20.70;5.72;;;8.80;99.90;;;7.89;100.00;100663.19;4253926;27;20188;-73
2022/11/24 01:55:00;;;;;;;25.55;4.07;;;8.80;99.90;;;7.89;100.00;100665.81;4253977;27;20038;-73
2022/11/24 01:57:26;;;;;;;19.15;3.33;;;8.70;99.90;;;7.87;100.00;100671.22;4253150;27;20490;-73
2022/11/24 01:59:27;;;;;;;21.38;4.13;;;8.70;99.90;;;7.80;100.00;100668.31;4210550;28;20020;-74
2022/11/24 02:01:30;;;;;;;19.00;3.42;;;8.70;99.90;;;7.84;100.00;100681.19;4253936;27;20109;-73
2022/11/24 02:03:37;;;;;;;16.38;3.92;;;8.70;99.90;;;7.74;100.00;100675.94;4219883;28;20028;-73
2022/11/24 02:05:49;;;;;;;23.27;3.58;;;8.70;99.90;;;7.78;100.00;100678.16;4253603;27;20026;-73
2022/11/24 02:07:51;;;;;;;24.77;4.45;;;8.60;99.90;;;7.72;100.00;100683.97;4252311;27;20031;-73
2022/11/24 02:09:58;;;;;;;23.95;4.53;;;8.60;99.90;;;7.72;100.00;100678.72;4236412;28;20149;-73
2022/11/24 02:12:01;;;;;;;26.75;4.65;;;8.60;99.90;;;7.68;100.00;100676.47;4219703;28;20111;-73
2022/11/24 02:14:06;;;;;;;27.70;3.97;;;8.60;99.90;;;7.70;100.00;100685.91;4253907;27;20121;-73
2022/11/24 02:16:09;;;;;;;22.77;3.55;;;8.60;99.90;;;7.65;100.00;100698.59;4253475;27;20059;-73
2022/11/24 02:18:10;;;;;;;29.33;3.88;;;8.60;99.90;;;7.61;100.00;100696.41;4252396;27;20050;-73
2022/11/24 02:20:12;;;;;;;17.35;3.80;;;8.50;99.90;;;7.60;100.00;100694.72;4220737;28;20036;-73
2022/11/24 02:22:48;;;;;;;27.13;3.55;;;8.50;99.90;;;7.63;100.00;100703.16;4219668;28;20136;-73
2022/11/24 02:25:02;;;;;;;23.40;3.90;;;8.50;99.90;;;7.62;100.00;100692.78;4219205;28;20031;-73
2022/11/24 02:27:03;;;;;;;23.23;4.05;;;8.50;99.90;;;7.63;100.00;100697.91;4219639;28;20020;-73
2022/11/24 02:29:04;;;;;;;20.25;3.13;;;8.50;99.90;;;7.61;100.00;100701.66;4219821;28;20035;-74
2022/11/24 02:31:05;;;;;;;30.95;4.15;;;8.50;99.90;;;7.63;100.00;100699.72;4218340;28;20024;-73
2022/11/24 02:33:05;;;;;;;22.63;4.50;;;8.50;99.90;;;7.59;100.00;100696.53;4219556;28;20039;-73
2022/11/24 02:35:09;;;;;;;24.42;4.10;;;8.50;99.90;;;7.59;100.00;100701.78;4219721;28;20438;-73
2022/11/24 02:37:10;;;;;;;25.08;3.78;;;8.50;99.90;;;7.61;100.00;100707.75;4219728;28;20025;-74
2022/11/24 02:39:12;;;;;;;23.63;4.45;;;8.50;99.90;;;7.59;100.00;100704.41;4252291;28;20045;-74
2022/11/24 02:41:21;;;;;;;28.60;4.88;;;8.50;99.90;;;7.61;100.00;100702.47;4251819;28;20030;-73
2022/11/24 02:43:23;;;;;;;22.42;4.13;;;8.50;99.90;;;7.63;100.00;100711.03;4219608;28;20573;-73
2022/11/24 02:45:25;;;;;;;20.85;5.47;;;8.50;99.90;;;7.65;100.00;100711.72;4219600;28;20036;-74
2022/11/24 02:47:27;;;;;;;27.55;4.55;;;8.50;99.90;;;7.70;100.00;100719.19;4252265;28;20031;-74
2022/11/24 02:49:28;;;;;;;30.17;4.95;;;8.50;99.90;;;7.66;100.00;100713.41;4252139;28;20105;-74
2022/11/24 02:51:29;;;;;;;31.42;4.63;;;8.60;99.90;;;7.68;100.00;100718.50;4219539;28;20069;-74
2022/11/24 02:53:30;;;;;;;30.88;4.63;;;8.60;99.90;;;7.66;100.00;100718.63;4252132;28;20027;-74
2022/11/24 02:55:31;;;;;;;34.55;6.18;;;8.60;99.90;;;7.69;100.00;100723.63;4219365;28;20581;-74
2022/11/24 02:57:32;;;;;;;29.13;4.32;;;8.60;99.90;;;7.66;100.00;100718.63;4219261;28;20036;-74
2022/11/24 02:59:33;;;;;;;25.80;4.65;;;8.60;99.90;;;7.66;100.00;100721.25;4252112;28;20052;-74
2022/11/24 03:01:34;;;;;;;23.58;4.93;;;8.50;99.90;;;7.63;100.00;100725.97;4219353;28;20073;-74
2022/11/24 03:03:35;;;;;;;21.83;3.40;;;8.50;99.90;;;7.61;100.00;100722.66;4219253;28;20032;-74
2022/11/24 03:05:36;;;;;;;30.85;4.10;;;8.50;99.90;;;7.57;100.00;100723.88;4234704;28;20110;-74
2022/11/24 03:07:37;;;;;;;16.40;3.83;;;8.40;99.90;;;7.50;100.00;100714.88;4219442;28;20035;-73
2022/11/24 03:09:38;;;;;;;21.15;3.85;;;8.40;99.90;;;7.49;100.00;100734.25;4219241;28;20020;-74
2022/11/24 03:11:39;;;;;;;20.33;3.40;;;8.40;99.90;;;7.48;100.00;100728.16;4200823;28;20024;-74
2022/11/24 03:13:39;;;;;;;26.45;4.03;;;8.40;99.90;;;7.45;100.00;100730.22;4219127;28;20031;-74
2022/11/24 03:15:40;;;;;;;27.58;4.15;;;8.30;99.90;;;7.38;100.00;100716.81;4217826;28;20101;-73
2022/11/24 03:17:41;;;;;;;21.48;3.13;;;8.30;99.90;;;7.38;100.00;100719.44;4218275;28;20024;-74
2022/11/24 03:19:42;;;;;;;22.90;4.65;;;8.20;99.90;;;7.27;100.00;100706.44;4217594;28;20031;-73
2022/11/24 03:21:43;;;;;;;20.63;3.60;;;8.20;99.90;;;7.27;100.00;100719.56;4176825;28;1207019;-74
2022/11/24 03:23:44;;;;;;;20.85;4.60;;;8.10;99.90;;;7.23;100.00;100716.38;4220099;28;20085;-73
2022/11/24 03:25:45;;;;;;;28.15;4.95;;;8.10;99.90;;;7.23;100.00;100713.75;4252299;27;20034;-73
2022/11/24 03:27:46;;;;;;;23.27;3.55;;;8.10;99.90;;;7.21;100.00;100710.44;4219740;28;20028;-74
2022/11/24 03:29:46;;;;;;;20.33;3.35;;;8.10;99.90;;;7.17;100.00;100708.22;4219540;28;20063;-73
2022/11/24 03:31:47;;;;;;;13.82;3.65;;;8.00;99.90;;;7.16;100.00;100701.31;4218420;28;20028;-74
2022/11/24 03:33:48;;;;;;;16.45;3.10;;;8.00;99.90;;;7.13;100.00;100706.84;4219550;28;20480;-73
2022/11/24 03:35:49;;;;;;;33.63;5.47;;;7.90;99.90;;;7.13;100.00;100697.19;4218024;28;20107;-74
2022/11/24 03:37:50;;;;;;;23.85;4.60;;;8.00;99.90;;;7.16;100.00;100696.06;4217926;28;20036;-73
2022/11/24 03:39:51;;;;;;;12.52;4.40;;;8.00;99.90;;;7.15;100.00;100695.25;4218593;28;20067;-73
2022/11/24 03:41:52;;;;;;;27.25;5.53;;;8.00;99.90;;;7.19;100.00;100706.31;4219381;28;20108;-73
2022/11/24 03:43:53;;;;;;;25.45;4.80;;;8.10;99.90;;;7.22;100.00;100699.00;4218204;28;20016;-73
2022/11/24 03:45:54;;;;;;;22.38;4.07;;;8.10;99.90;;;7.31;100.00;100710.47;4218105;28;20028;-74
2022/11/24 03:47:54;;;;;;;20.83;3.83;;;8.20;99.90;;;7.27;100.00;100703.81;4219506;28;20024;-73
2022/11/24 03:49:55;;;;;;;11.13;2.75;;;8.10;99.90;;;7.18;100.00;100709.88;4219375;28;20039;-73
2022/11/24 03:51:56;;;;;;;24.35;5.32;;;8.10;99.90;;;7.10;100.00;100712.34;4218532;28;20021;-74
2022/11/24 03:53:57;;;;;;;22.15;3.45;;;8.00;99.90;;;7.01;100.00;100706.13;4219192;28;20031;-74
2022/11/24 03:55:58;;;;;;;18.15;3.10;;;7.90;99.90;;;6.99;100.00;100701.97;4218313;28;20031;-74
2022/11/24 03:57:59;;;;;;;24.10;4.00;;;7.90;99.90;;;6.95;100.00;100704.03;4218059;28;20028;-74
2022/11/24 04:00:00;;;;;;;19.73;2.63;;;7.80;99.90;;;6.88;100.00;100700.28;4219222;28;20069;-74
2022/11/24 04:02:01;;;;;;;16.52;3.10;;;7.80;99.90;;;6.84;100.00;100695.44;4217498;28;20024;-74
2022/11/24 04:04:02;;;;;;;19.80;3.58;;;7.70;99.90;;;6.84;100.00;100698.06;4205763;28;20020;-74
2022/11/24 04:06:02;;;;;;;21.75;3.90;;;7.70;99.90;;;6.77;100.00;100692.53;4252065;27;20015;-74
2022/11/24 04:08:04;;;;;;;13.95;3.03;;;7.70;99.90;;;6.73;100.00;100688.50;4217837;28;20118;-74
2022/11/24 04:10:06;;;;;;;16.70;3.83;;;7.60;99.90;;;6.72;100.00;100694.69;4251763;27;20578;-74
2022/11/24 04:14:28;;;;;;;12.25;2.55;;;7.60;99.90;;;6.55;100.00;100690.91;4219285;28;20035;-74
2022/11/24 04:16:29;;;;;;;16.13;2.58;;;7.50;99.90;;;6.48;100.00;100687.16;4218983;28;20028;-74
2022/11/24 04:18:30;;;;;;;12.40;3.03;;;7.40;99.90;;;6.45;100.00;100689.22;4216549;28;20031;-74
2022/11/24 04:20:31;;;;;;;16.90;2.78;;;7.40;99.90;;;6.39;100.00;100687.94;4218955;28;20020;-73
2022/11/24 04:22:32;;;;;;;15.10;2.55;;;7.30;99.90;;;6.36;100.00;100690.81;4217306;28;20466;-74
2022/11/24 04:24:33;;;;;;;20.05;2.80;;;7.30;99.90;;;6.32;100.00;100692.03;4218893;28;20024;-73
2022/11/24 04:26:34;;;;;;;22.02;4.28;;;7.20;99.90;;;6.29;100.00;100689.69;4217263;28;20050;-74
2022/11/24 04:28:35;;;;;;;16.00;2.55;;;7.20;99.90;;;6.30;100.00;100693.94;4217980;28;20020;-73
2022/11/24 04:30:39;;;;;;;12.60;2.80;;;7.20;99.90;;;6.30;100.00;100701.00;4218886;28;20028;-73
2022/11/24 04:32:39;;;;;;;12.23;3.15;;;7.20;99.90;;;6.25;100.00;100690.91;4219006;28;20064;-73
2022/11/24 04:34:40;;;;;;;27.70;4.28;;;7.20;99.90;;;6.28;100.00;100702.91;4251319;27;20031;-73
2022/11/24 04:36:41;;;;;;;17.20;3.00;;;7.20;99.90;;;6.26;100.00;100695.19;4218781;28;20483;-73
2022/11/24 04:38:42;;;;;;;15.60;3.42;;;7.20;99.90;;;6.26;100.00;100705.66;4218651;28;20402;-73
2022/11/24 04:40:43;;;;;;;20.20;3.13;;;7.20;99.90;;;6.26;100.00;100704.81;4218522;28;20057;-73
2022/11/24 04:42:53;;;;;;;14.35;2.47;;;7.10;99.90;;;6.27;100.00;100702.09;4218507;28;20028;-74
2022/11/24 04:44:54;;;;;;;23.77;3.15;;;7.10;99.90;;;6.24;100.00;100691.88;4218726;28;20104;-74
2022/11/24 04:46:55;;;;;;;16.08;3.10;;;7.20;99.90;;;6.29;100.00;100691.47;4218682;28;20491;-74
2022/11/24 04:48:56;;;;;;;15.38;3.25;;;7.10;99.90;;;6.32;100.00;100691.22;4218833;28;20081;-73
2022/11/24 04:50:57;;;;;;;22.98;3.67;;;7.20;99.90;;;6.38;100.00;100698.56;4218494;28;20451;-73
2022/11/24 04:52:57;;;;;;;27.83;4.50;;;7.30;99.90;;;6.51;100.00;100702.59;4218611;28;20032;-73
2022/11/24 04:54:58;;;;;;;29.27;5.25;;;7.40;99.90;;;6.56;100.00;100708.31;4251303;27;20073;-74
2022/11/24 04:56:59;;;;;;;20.85;3.97;;;7.40;99.90;;;6.58;100.00;100706.38;4200179;28;20032;-73
2022/11/24 04:59:00;;;;;;;26.77;3.88;;;7.40;99.90;;;6.52;100.00;100701.66;4218356;28;20048;-73
2022/11/24 05:01:05;;;;;;;26.60;4.57;;;7.40;99.90;;;6.49;100.00;100701.91;4218464;28;20133;-74
2022/11/24 05:03:05;;;;;;;30.17;4.45;;;7.40;99.90;;;6.53;100.00;100697.25;4250279;28;20031;-74
2022/11/24 05:05:07;;;;;;;16.27;3.83;;;7.40;99.90;;;6.49;100.00;100695.84;4218448;28;20020;-73
2022/11/24 05:07:13;;;;;;;17.90;3.70;;;7.40;99.90;;;6.48;100.00;100695.00;4251179;28;20428;-73
2022/11/24 05:09:16;;;;;;;27.90;5.38;;;7.40;99.90;;;6.42;100.00;100692.91;4251160;27;20016;-73
2022/11/24 05:11:18;;;;;;;22.73;4.60;;;7.30;99.90;;;6.45;100.00;100692.66;4218416;28;20035;-73
2022/11/24 05:13:19;;;;;;;18.52;3.72;;;7.30;99.90;;;6.42;100.00;100685.03;4217078;28;20055;-74
2022/11/24 05:15:20;;;;;;;33.22;5.47;;;7.30;99.90;;;6.44;100.00;100687.56;4217067;28;20047;-74
2022/11/24 05:17:20;;;;;;;22.08;3.90;;;7.30;99.90;;;6.40;100.00;100684.34;4218540;28;20071;-73
2022/11/24 05:19:21;;;;;;;26.50;5.10;;;7.30;99.90;;;6.45;100.00;100694.47;4217335;28;20031;-73
2022/11/24 05:21:22;;;;;;;34.13;4.57;;;7.30;99.90;;;6.44;100.00;100687.56;4218193;28;20491;-74
2022/11/24 05:23:23;;;;;;;27.05;5.32;;;7.30;99.90;;;6.38;100.00;100683.66;4250882;28;20031;-73
2022/11/24 05:25:24;;;;;;;34.15;4.75;;;7.30;99.90;;;6.40;100.00;100681.75;4217184;28;20020;-74
2022/11/24 05:27:25;;;;;;;33.25;5.95;;;7.30;99.90;;;6.45;100.00;100689.22;4218129;28;20031;-74
2022/11/24 05:29:26;;;;;;;23.90;4.43;;;7.30;99.90;;;6.45;100.00;100694.47;4218222;28;20028;-74
2022/11/24 05:31:27;;;;;;;31.65;5.45;;;7.30;99.90;;;6.49;100.00;100686.19;4218243;28;20028;-73
2022/11/24 05:33:29;;;;;;;24.73;3.95;;;7.40;99.90;;;6.51;100.00;100686.88;4250977;28;20030;-73
2022/11/24 05:35:29;;;;;;;29.38;4.10;;;7.40;99.90;;;6.47;100.00;100688.13;4250987;28;20031;-73
2022/11/24 05:37:30;;;;;;;23.02;4.15;;;7.40;99.90;;;6.47;100.00;100693.38;4218108;28;20039;-73
2022/11/24 05:39:33;;;;;;;28.52;5.78;;;7.30;99.90;;;6.50;100.00;100694.88;4218093;28;20020;-73
2022/11/24 05:41:34;;;;;;;31.75;5.55;;;7.30;99.90;;;6.48;100.00;100689.75;4216714;28;20032;-73
2022/11/24 05:43:35;;;;;;;30.42;5.07;;;7.30;99.90;;;6.50;100.00;100693.09;4218301;28;20036;-73
2022/11/24 05:45:36;;;;;;;38.83;6.03;;;7.40;99.90;;;6.50;100.00;100693.09;4218095;28;20035;-73
2022/11/24 05:47:39;;;;;;;26.80;4.78;;;7.40;99.90;;;6.54;100.00;100691.84;4233532;28;20035;-73
2022/11/24 05:49:40;;;;;;;28.95;3.92;;;7.40;99.90;;;6.53;100.00;100698.09;4216882;28;20024;-73
2022/11/24 05:51:41;;;;;;;20.02;3.80;;;7.40;99.90;;;6.50;100.00;100684.41;4218120;28;20086;-73
2022/11/24 05:53:41;;;;;;;27.80;4.20;;;7.30;99.90;;;6.51;100.00;100693.94;4250860;28;20075;-74
2022/11/24 05:55:42;;;;;;;22.38;4.40;;;7.30;99.90;;;6.47;100.00;100693.38;4217758;28;20073;-73
2022/11/24 05:57:43;;;;;;;19.20;6.90;;;7.40;99.90;;;6.52;100.00;100701.66;4216779;28;20074;-73
2022/11/24 05:59:44;;;;;;;18.30;5.57;;;7.40;99.90;;;6.49;100.00;100701.91;4219010;28;20036;-73
2022/11/24 06:01:45;;;;;;;29.73;7.40;;;7.40;99.90;;;6.48;100.00;100696.81;4221107;28;20153;-74
2022/11/24 06:03:46;;;;;;;31.80;10.05;;;7.40;99.90;;;6.52;100.00;100701.66;4220944;28;20036;-73
2022/11/24 06:05:47;;;;;;;28.73;10.70;;;7.40;99.90;;;6.52;100.00;100690.34;4219943;28;20020;-73
2022/11/24 06:07:48;;;;;;;37.70;10.88;;;7.40;99.90;;;6.55;100.00;100696.16;4220629;28;20463;-73
2022/11/24 06:09:49;;;;;;;29.35;7.93;;;7.40;99.90;;;6.59;100.00;100696.72;4220900;28;20032;-73
2022/11/24 06:11:50;;;;;;;23.95;6.65;;;7.50;99.90;;;6.57;100.00;100694.22;4219359;28;20020;-73
2022/11/24 06:13:51;;;;;;;28.23;5.55;;;7.50;99.90;;;6.54;100.00;100691.06;4220954;28;20031;-73
2022/11/24 06:15:52;;;;;;;20.52;4.90;;;7.50;99.90;;;6.51;100.00;100688.69;4220707;28;20031;-73
2022/11/24 06:17:54;;;;;;;19.30;4.30;;;7.40;99.90;;;6.55;100.00;100695.31;4218640;28;20046;-73
2022/11/24 06:19:55;;;;;;;23.83;4.28;;;7.40;99.90;;;6.53;100.00;100690.22;4220867;28;20024;-73
2022/11/24 06:21:56;;;;;;;31.42;5.35;;;7.40;99.90;;;6.55;100.00;100700.56;4253403;27;20039;-74
2022/11/24 06:23:57;;;;;;;31.90;4.90;;;7.40;99.90;;;6.61;100.00;100700.03;4219550;28;20028;-73
2022/11/24 06:25:59;;;;;;;34.42;5.03;;;7.50;99.90;;;6.72;100.00;100707.00;4219241;28;20024;-73
2022/11/24 06:28:03;;;;;;;31.63;4.40;;;7.50;99.90;;;6.89;100.00;100703.72;4220574;28;20394;-73
2022/11/24 06:30:05;;;;;;;24.02;4.35;;;7.70;99.90;;;6.94;100.00;100706.78;4220924;28;20051;-73
2022/11/24 06:32:06;;;;;;;30.27;5.90;;;7.80;99.90;;;7.02;100.00;100707.75;4253051;27;20067;-73
2022/11/24 06:34:10;;;;;;;27.10;4.85;;;7.90;99.90;;;7.07;100.00;100699.50;4220732;28;20031;-73
2022/11/24 06:36:13;;;;;;;30.20;5.22;;;8.00;99.90;;;7.18;100.00;100708.09;4252901;27;20099;-73
2022/11/24 06:38:15;;;;;;;30.83;4.68;;;8.10;99.90;;;7.25;100.00;100708.38;4219274;28;20028;-73
2022/11/24 06:40:16;;;;;;;23.45;3.67;;;8.10;99.90;;;7.22;100.00;100706.88;4220506;28;20118;-73
2022/11/24 06:42:17;;;;;;;30.90;3.97;;;8.10;99.90;;;7.16;100.00;100706.56;4220313;28;20085;-73
2022/11/24 06:44:18;;;;;;;24.52;5.25;;;8.00;99.90;;;7.09;100.00;100701.03;4220278;28;20021;-73
2022/11/24 06:46:20;;;;;;;23.27;3.22;;;7.90;99.90;;;7.02;100.00;100699.06;4220514;28;20024;-73
2022/11/24 06:48:21;;;;;;;31.95;5.25;;;7.90;99.90;;;7.06;100.00;100700.47;4220410;28;20491;-73
2022/11/24 06:50:22;;;;;;;17.55;3.15;;;7.90;99.90;;;7.08;100.00;100698.53;4253099;27;20528;-73
2022/11/24 06:52:23;;;;;;;26.27;4.97;;;7.90;99.90;;;7.03;100.00;100695.47;4220208;28;20028;-73
2022/11/24 06:54:24;;;;;;;20.48;4.70;;;7.90;99.90;;;7.02;100.00;100699.06;4220390;28;20480;-73
2022/11/24 06:56:25;;;;;;;23.75;3.92;;;7.90;99.90;;;7.00;100.00;100693.97;4220073;28;20032;-73
2022/11/24 06:58:26;;;;;;;19.67;3.47;;;7.90;99.90;;;7.01;100.00;100698.25;4220163;28;20032;-73
2022/11/24 07:00:28;;;;;;;17.60;3.88;;;7.90;99.90;;;6.98;100.00;100692.44;4252693;27;20023;-74
2022/11/24 07:02:28;;;;;;;22.83;3.88;;;7.80;99.90;;;7.02;100.00;100696.44;4218803;28;20074;-73
2022/11/24 07:04:29;;;;;;;24.40;3.80;;;7.90;99.90;;;7.02;100.00;100693.81;4220382;28;20024;-73
2022/11/24 07:06:30;;;;;;;18.05;3.80;;;7.90;99.90;;;7.02;100.00;100693.81;4252911;27;20031;-73
2022/11/24 07:08:31;;;;;;;25.63;5.45;;;7.90;99.90;;;6.98;100.00;100690.66;4219991;28;20513;-73
2022/11/24 07:10:32;;;;;;;20.77;3.63;;;7.90;99.90;;;6.96;100.00;100689.13;4219519;28;20031;-73
2022/11/24 07:12:34;;;;;;;25.45;3.60;;;7.90;99.90;;;6.97;100.00;100688.16;4219304;28;20107;-73
2022/11/24 07:14:35;;;;;;;25.00;3.80;;;7.90;99.90;;;6.97;100.00;100690.78;4252726;27;20095;-73
2022/11/24 07:16:37;;;;;;;18.50;3.83;;;7.90;99.90;;;6.98;100.00;100684.56;4219500;28;20043;-73
2022/11/24 07:18:38;;;;;;;14.82;3.10;;;7.90;99.90;;;7.04;100.00;100666.50;4251368;27;20042;-73
2022/11/24 07:20:38;;;;;;;26.98;3.70;;;7.90;99.90;;;7.21;100.00;100667.63;4219711;28;20024;-74
2022/11/24 07:22:39;;;;;;;26.20;4.55;;;8.10;99.90;;;7.31;100.00;100672.91;4219897;28;20104;-74
2022/11/24 07:24:40;;;;;;;21.88;4.30;;;8.10;99.90;;;7.29;100.00;100675.63;4219806;28;20045;-73
2022/11/24 07:26:41;;;;;;;27.17;4.72;;;8.20;99.90;;;7.33;100.00;100676.19;4252419;27;20028;-73
2022/11/24 07:28:42;;;;;;;14.70;3.55;;;8.20;99.90;;;7.34;100.00;100680.50;4219761;28;20054;-74
2022/11/24 07:30:43;;;;;;;31.73;4.55;;;8.20;99.90;;;7.30;100.00;100677.31;4249060;27;20034;-74
2022/11/24 07:32:43;;;;;;;32.75;3.90;;;8.20;99.90;;;7.22;100.00;100669.31;4218486;28;20039;-73
2022/11/24 07:34:44;;;;;;;27.20;4.65;;;8.10;99.90;;;7.19;100.00;100670.41;4218265;28;20031;-73
2022/11/24 07:36:45;;;;;;;28.80;4.55;;;8.10;99.90;;;7.12;100.00;100674.53;4218312;28;20035;-73
2022/11/24 07:38:46;;;;;;;27.33;4.43;;;8.10;99.90;;;7.13;100.00;100683.22;4218441;28;20032;-73
2022/11/24 07:40:47;;;;;;;28.20;4.07;;;8.00;99.90;;;7.11;100.00;100677.28;4219355;28;20028;-73
2022/11/24 07:42:48;;;;;;;29.63;5.32;;;8.00;99.90;;;7.12;100.00;100676.31;4219497;28;20050;-73
2022/11/24 07:44:49;;;;;;;19.63;3.58;;;8.00;99.90;;;7.15;100.00;100673.41;4219574;28;20020;-73
2022/11/24 07:46:50;;;;;;;22.58;4.53;;;8.10;99.90;;;7.28;100.00;100684.50;4252227;27;20027;-74
2022/11/24 07:48:51;;;;;;;25.17;4.05;;;8.10;99.90;;;7.37;100.00;100677.59;4219365;28;20391;-73
2022/11/24 07:50:51;;;;;;;22.08;4.03;;;8.30;99.90;;;7.55;100.00;100695.16;4217971;28;20039;-73
2022/11/24 07:52:52;;;;;;;23.30;3.67;;;8.40;99.90;;;7.65;100.00;100679.38;4218210;28;20031;-73
2022/11/24 07:54:53;;;;;;;20.65;4.60;;;8.50;99.90;;;7.66;100.00;100681.88;4219317;28;20028;-73
2022/11/24 07:56:54;;;;;;;21.25;5.00;;;8.50;99.90;;;7.64;100.00;100688.25;4219205;28;20020;-73
2022/11/24 07:58:55;;;;;;;19.33;3.60;;;8.50;99.90;;;7.62;100.00;100683.13;4234656;28;20102;-74
2022/11/24 08:00:56;;;;;;;25.63;4.90;;;8.50;99.90;;;7.65;100.00;100682.84;4218238;28;20024;-74
2022/11/24 08:02:58;;;;;;;24.40;4.60;;;8.50;99.90;;;7.69;100.00;100681.63;4217947;28;20089;-74
2022/11/24 08:04:59;;;;;;;21.92;4.35;;;8.50;99.90;;;7.78;100.00;100672.91;4200988;28;20028;-73
2022/11/24 08:07:00;;;;;;;27.55;5.38;;;8.60;99.90;;;7.94;100.00;100690.72;4218983;28;20480;-73
2022/11/24 08:09:01;;;;;;;26.25;4.43;;;8.70;99.90;;;8.12;100.00;100693.44;4251222;27;20023;-73
2022/11/24 08:11:11;;;;;;;27.63;5.57;;;8.90;99.90;;;8.30;100.00;100699.66;4218871;28;20032;-73
2022/11/24 08:13:12;;;;;;;30.27;5.13;;;9.00;99.90;;;8.42;100.00;100698.53;4218978;28;20028;-73
2022/11/24 08:15:13;;;;;;;23.73;4.72;;;9.20;99.90;;;8.45;100.00;100700.03;4251538;27;20038;-73
2022/11/24 08:17:14;;;;;;;28.38;6.80;;;9.20;99.90;;;8.49;100.00;100691.72;4217840;28;20024;-73
2022/11/24 08:19:15;;;;;;;33.78;6.22;;;9.30;99.90;;;8.60;100.00;100701.22;4250684;27;20027;-73
2022/11/24 08:21:16;;;;;;;35.92;6.82;;;9.40;99.90;;;8.68;100.00;100696.06;4234345;28;20040;-73
2022/11/24 08:23:16;;;;;;;38.95;7.55;;;9.50;99.90;;;8.66;100.00;100701.47;4218422;28;20020;-74
2022/11/24 08:25:18;;;;;;;23.13;5.70;;;9.50;99.90;;;8.66;100.00;100696.19;4218950;28;20024;-73
2022/11/24 08:27:19;;;;;;;32.42;6.57;;;9.50;99.90;;;8.67;100.00;100703.13;4218690;28;20052;-73
2022/11/24 08:29:20;;;;;;;33.47;5.75;;;9.50;99.90;;;8.64;100.00;100692.91;4218884;28;20364;-73